This is the latest recevied weather packets stored in our database for station/object WB4ROX. If no packets are shown the sender has not sent any weather packets the latest 10 day(s).
| Time | Temp. | Humidity | Pressure | Rain* | Wind** | Luminosity | Snow |
|---|---|---|---|---|---|---|---|
| 1777759872 | 6.11° C | 52% | 1013.9 hPa | 0 mm | - | 279 W/m² | - |
| 1777759568 | 5.56° C | 53% | 1013.9 hPa | 0 mm | - | 312 W/m² | - |
| 1777759264 | 5° C | 55% | 1013.9 hPa | 0 mm | - | 325 W/m² | - |
| 1777758961 | 4.44° C | 56% | 1013.8 hPa | 0 mm | - | 89 W/m² | - |
| 1777758658 | 5° C | 55% | 1013.7 hPa | 0 mm | - | 106 W/m² | - |
| 1777758355 | 5° C | 55% | 1013.8 hPa | 0 mm | - | 106 W/m² | - |
| 1777758053 | 5° C | 55% | 1013.9 hPa | 0 mm | - | 92 W/m² | - |
| 1777757749 | 5° C | 53% | 1013.7 hPa | 0 mm | - | 122 W/m² | - |
| 1777757447 | 6.11° C | 50% | 1013.6 hPa | 0 mm | - | 143 W/m² | - |
| 1777757146 | 6.11° C | 51% | 1013.6 hPa | 0 mm | - | 241 W/m² | - |
| 1777756843 | 6.11° C | 51% | 1013.6 hPa | 0 mm | - | 278 W/m² | - |
| 1777756538 | 6.11° C | 51% | 1013.5 hPa | 0 mm | - | 417 W/m² | - |
| 1777756236 | 5.56° C | 51% | 1013.7 hPa | 0 mm | - | 242 W/m² | - |
| 1777755933 | 6.11° C | 52% | 1013.6 hPa | 0 mm | - | 192 W/m² | - |
| 1777755630 | 6.67° C | 50% | 1013.7 hPa | 0 mm | - | 201 W/m² | - |
| 1777755326 | 5.56° C | 53% | 1013.5 hPa | 0 mm | - | 276 W/m² | - |
| 1777755024 | 5.56° C | 52% | 1013.7 hPa | 0 mm | - | 161 W/m² | - |
| 1777754721 | 6.67° C | 50% | 1013.5 hPa | 0 mm | - | 160 W/m² | - |
| 1777754418 | 7.78° C | 46% | 1013.6 hPa | 0 mm | - | 210 W/m² | - |
| 1777754115 | 7.22° C | 45% | 1013.3 hPa | 0 mm | - | 260 W/m² | - |
| 1777753812 | 7.78° C | 45% | 1013.5 hPa | 0 mm | - | 723 W/m² | - |
| 1777753508 | 6.67° C | 47% | 1013.5 hPa | 0 mm | - | 777 W/m² | - |
| 1777753207 | 7.22° C | 47% | 1013.3 hPa | 0 mm | - | 525 W/m² | - |
| 1777752902 | 6.11° C | 49% | 1013.2 hPa | 0 mm | - | 282 W/m² | - |
| 1777752599 | 6.67° C | 48% | 1013.7 hPa | 0 mm | - | 193 W/m² | - |
* Rain latest hour (hover to see other rain measurements)
** Current wind speed in m/s (hover to see current wind gust speed)